Etusivu
METAR-TAF:

METAR-TAF

Lentoasemat :

Meeker Airport

Meeker, Colorado, Yhdysvallat

Leveyspiiri: 40-02-32N, Pituuspiiri: 107-53-23W, korkeus merenpinnasta: 1948 m

Tämänhetkinen sää

Tämä raportti tehtiin 58 minuuttia sitten, kello 06.53 UTC
Tuuli 5 kn idästä/kaakosta
Lämpötila 5°C
Kosteus 65%
Ilmanpaine 1020 hPa
Näkyvyys: 16.1 km
selkeää

METAR: KEEO 240653Z AUTO 11005KT 10SM CLR 05/M01 A3012 RMK AO2 SLP146 T00501011 401831011

Aika: 01:51 (07:51 UTC)


TAF: puuttuu

Säähavainnot ja -ennusteet yli 4000 lentoasemalta (METAR- ja TAF-raportit).

Käytössä olevat sääasemat on merkitty karttaan keltaisilla ja punaisilla pisteillä.

Aseta hiiri pisteen päälle nähdäksesi sääaseman nimen.

Klikkaa sitten nähdäksesi säähavainnot ja -ennusteet.

Kartan vaihtaminen: klikkaa mustalla rastilla varustettuja vihreitä pisteitä, niin voit zoomata sisään; viivalla varustettua vihreää pistettä, niin voit zoomata ulos tai vihreitä nuolia, niin pääset viereisille kartoille.


METAR-TAF: